createdAt,value
2023-02-08T00:03:05.646Z,5.48
2023-02-08T00:06:16.773Z,5.51
2023-02-08T00:09:28.548Z,5.54
2023-02-08T00:12:40.113Z,5.57
2023-02-08T00:15:54.095Z,5.60
2023-02-08T00:18:53.817Z,5.60
2023-02-08T00:22:03.782Z,5.60
2023-02-08T00:25:07.111Z,5.58
2023-02-08T00:28:19.326Z,5.58
2023-02-08T00:31:29.488Z,5.60
2023-02-08T00:34:41.330Z,5.62
2023-02-08T00:37:47.358Z,5.63
2023-02-08T00:40:58.068Z,5.65
2023-02-08T00:44:03.062Z,5.65
2023-02-08T00:47:14.951Z,5.67
2023-02-08T00:50:26.102Z,5.68
2023-02-08T00:53:38.876Z,5.70
2023-02-08T00:56:42.474Z,5.72
2023-02-08T00:59:46.220Z,5.74
2023-02-08T01:02:57.836Z,5.76
2023-02-08T01:06:07.676Z,5.77
2023-02-08T01:09:19.596Z,5.80
2023-02-08T01:12:30.787Z,5.82
2023-02-08T01:15:41.599Z,5.86
2023-02-08T01:18:53.436Z,5.89
2023-02-08T01:22:04.492Z,5.95
2023-02-08T01:25:15.366Z,6.01
2023-02-08T01:28:20.264Z,6.08
2023-02-08T01:31:17.212Z,6.13
2023-02-08T01:34:28.367Z,6.18
2023-02-08T01:37:29.672Z,6.24
2023-02-08T01:40:40.736Z,6.34
2023-02-08T01:44:06.202Z,6.40
2023-02-08T01:47:11.245Z,6.44
2023-02-08T01:50:13.826Z,6.46
2023-02-08T01:53:25.311Z,6.46
2023-02-08T01:56:38.102Z,6.45
2023-02-08T01:59:49.061Z,6.42
2023-02-08T02:02:49.392Z,6.40
2023-02-08T02:05:57.450Z,6.38
2023-02-08T02:09:04.222Z,6.36
2023-02-08T02:12:15.849Z,6.36
2023-02-08T02:15:27.177Z,6.36
2023-02-08T02:18:34.267Z,6.34
2023-02-08T02:22:14.380Z,6.31
2023-02-08T02:25:34.267Z,6.25
2023-02-08T02:28:51.210Z,6.19
2023-02-08T02:32:00.305Z,6.08
2023-02-08T02:35:06.965Z,6.00
2023-02-08T02:38:23.223Z,5.92
2023-02-08T02:41:56.504Z,5.83
2023-02-08T02:45:11.094Z,5.76
2023-02-08T02:48:24.508Z,5.73
2023-02-08T02:51:39.972Z,5.69
2023-02-08T02:54:52.186Z,5.65
2023-02-08T02:58:04.488Z,5.62
2023-02-08T03:00:59.803Z,5.59
2023-02-08T03:04:19.256Z,5.57
2023-02-08T03:07:26.562Z,5.51
2023-02-08T03:10:47.836Z,5.45
2023-02-08T03:14:11.539Z,5.39
2023-02-08T03:17:21.041Z,5.35
2023-02-08T03:20:36.930Z,5.30
2023-02-08T03:23:57.261Z,5.28
2023-02-08T03:27:04.609Z,5.25
2023-02-08T03:30:19.291Z,5.20
2023-02-08T03:33:22.784Z,5.16
2023-02-08T03:36:36.634Z,5.12
2023-02-08T03:39:48.628Z,5.10
2023-02-08T03:43:00.953Z,5.08
2023-02-08T03:46:05.389Z,5.06
2023-02-08T03:49:10.185Z,5.04
2023-02-08T03:52:21.549Z,5.03
2023-02-08T03:55:35.195Z,5.02
2023-02-08T03:58:43.763Z,5.01
2023-02-08T04:01:58.071Z,5.02
2023-02-08T04:05:10.039Z,5.04
2023-02-08T04:08:22.114Z,5.06
2023-02-08T04:11:33.262Z,5.10
2023-02-08T04:14:35.311Z,5.14
2023-02-08T04:17:46.594Z,5.16
2023-02-08T04:20:58.327Z,5.16
2023-02-08T04:24:09.472Z,5.15
2023-02-08T04:27:19.842Z,5.13
2023-02-08T04:30:31.008Z,5.10
2023-02-08T04:33:41.850Z,5.08
2023-02-08T04:36:53.297Z,5.04
2023-02-08T04:40:04.183Z,5.01
2023-02-08T04:43:14.995Z,4.99
2023-02-08T04:46:26.148Z,4.96
2023-02-08T04:49:37.083Z,4.93
2023-02-08T04:52:46.812Z,4.95
2023-02-08T04:55:50.378Z,4.97
2023-02-08T04:58:53.873Z,4.98
2023-02-08T05:02:04.654Z,5.02
2023-02-08T05:05:15.760Z,5.04
2023-02-08T05:08:27.133Z,5.06
2023-02-08T05:11:32.092Z,5.05
2023-02-08T05:14:42.826Z,5.03
2023-02-08T05:17:53.915Z,5.00
2023-02-08T05:21:06.224Z,4.98
2023-02-08T05:24:18.480Z,4.94
2023-02-08T05:27:29.530Z,4.91
2023-02-08T05:30:41.418Z,4.85
2023-02-08T05:33:52.770Z,4.77
2023-02-08T05:37:04.019Z,4.69
2023-02-08T05:40:15.527Z,4.63
2023-02-08T05:43:26.458Z,4.54
2023-02-08T05:46:38.169Z,4.43
2023-02-08T05:49:48.869Z,4.39
2023-02-08T05:53:00.170Z,4.36
2023-02-08T05:56:11.368Z,4.36
2023-02-08T05:59:12.864Z,4.40
2023-02-08T06:02:24.113Z,4.46
2023-02-08T06:05:35.452Z,4.49
2023-02-08T06:08:46.501Z,4.51
2023-02-08T06:11:57.518Z,4.52
2023-02-08T06:14:58.541Z,4.51
2023-02-08T06:18:09.725Z,4.46
2023-02-08T06:21:21.959Z,4.39
2023-02-08T06:24:33.942Z,4.27
2023-02-08T06:27:44.928Z,4.18
2023-02-08T06:30:55.733Z,4.09
2023-02-08T06:34:06.945Z,4.07
2023-02-08T06:37:12.015Z,4.09
2023-02-08T06:40:22.950Z,4.13
2023-02-08T06:43:33.925Z,4.21
2023-02-08T06:46:44.833Z,4.25
2023-02-08T06:49:45.584Z,4.31
2023-02-08T06:52:56.298Z,4.38
2023-02-08T06:56:07.407Z,4.45
2023-02-08T06:59:18.496Z,4.50
2023-02-08T07:02:22.794Z,4.54
2023-02-08T07:05:35.584Z,4.58
2023-02-08T07:08:35.840Z,4.58
2023-02-08T07:11:46.585Z,4.59
2023-02-08T07:14:57.747Z,4.59
2023-02-08T07:18:08.574Z,4.56
2023-02-08T07:21:19.844Z,4.54
2023-02-08T07:24:30.604Z,4.52
2023-02-08T07:27:41.399Z,4.50
2023-02-08T07:30:52.526Z,4.50
2023-02-08T07:34:03.342Z,4.49
2023-02-08T07:37:14.960Z,4.50
2023-02-08T07:40:26.033Z,4.51
2023-02-08T07:43:27.697Z,4.57
2023-02-08T07:46:38.945Z,4.63
2023-02-08T07:49:49.705Z,4.68
2023-02-08T07:53:01.255Z,4.74
2023-02-08T07:56:12.555Z,4.84
2023-02-08T07:59:24.623Z,4.99
2023-02-08T08:02:35.479Z,5.12
2023-02-08T08:05:46.541Z,5.18
2023-02-08T08:08:57.774Z,5.25
2023-02-08T08:11:57.403Z,5.32
2023-02-08T08:15:08.868Z,5.40
2023-02-08T08:18:12.295Z,5.46
2023-02-08T08:21:16.985Z,5.52
2023-02-08T08:24:18.194Z,5.59
2023-02-08T08:27:29.044Z,5.68
2023-02-08T08:30:40.390Z,5.81
2023-02-08T08:33:44.320Z,5.92
2023-02-08T08:36:55.595Z,6.02
2023-02-08T08:39:58.728Z,6.21
2023-02-08T08:43:09.113Z,6.37
2023-02-08T08:46:20.203Z,6.48
2023-02-08T08:49:31.449Z,6.57
2023-02-08T08:52:42.879Z,6.65
2023-02-08T08:55:47.100Z,6.71
2023-02-08T08:58:51.786Z,6.78
2023-02-08T09:01:46.510Z,6.89
2023-02-08T09:05:00.071Z,7.01
2023-02-08T09:08:04.290Z,7.11
2023-02-08T09:11:16.496Z,7.19
2023-02-08T09:14:21.191Z,7.28
2023-02-08T09:17:30.711Z,7.41
2023-02-08T09:20:31.479Z,7.52
2023-02-08T09:23:33.197Z,7.64
2023-02-08T09:26:35.299Z,7.75
2023-02-08T09:29:46.198Z,7.88
2023-02-08T09:32:49.731Z,7.98
2023-02-08T09:35:49.676Z,8.06
2023-02-08T09:39:02.257Z,8.18
2023-02-08T09:42:32.641Z,8.29
2023-02-08T09:45:54.398Z,8.41
2023-02-08T09:48:52.112Z,8.51
2023-02-08T09:51:58.206Z,8.64
2023-02-08T09:54:51.611Z,8.76
2023-02-08T09:57:57.045Z,8.89
2023-02-08T10:00:51.431Z,9.01
2023-02-08T10:03:56.536Z,9.13
2023-02-08T10:06:50.429Z,9.22
2023-02-08T10:09:46.346Z,9.30
2023-02-08T10:13:01.987Z,9.39
2023-02-08T10:15:54.176Z,9.47
2023-02-08T10:19:10.433Z,9.56
2023-02-08T10:22:07.379Z,9.66
2023-02-08T10:25:15.730Z,9.71
2023-02-08T10:28:18.579Z,9.77
2023-02-08T10:31:14.612Z,9.86
2023-02-08T10:34:21.762Z,9.96
2023-02-08T10:37:15.005Z,10.06
2023-02-08T10:40:17.091Z,10.16
2023-02-08T10:43:17.474Z,10.28
2023-02-08T10:46:10.462Z,10.37
2023-02-08T10:49:08.415Z,10.47
2023-02-08T10:51:59.019Z,10.57
2023-02-08T10:54:52.986Z,10.69
2023-02-08T10:57:48.662Z,10.80
2023-02-08T11:00:40.292Z,10.90
2023-02-08T11:04:02.153Z,10.97
2023-02-08T11:06:54.954Z,11.03
2023-02-08T11:09:45.254Z,11.10
2023-02-08T11:12:36.081Z,11.21
2023-02-08T11:15:28.220Z,11.34
2023-02-08T11:18:21.904Z,11.50
2023-02-08T11:21:23.738Z,11.72
2023-02-08T11:24:26.332Z,12.04
2023-02-08T11:27:30.542Z,12.52
2023-02-08T11:30:24.456Z,13.09
2023-02-08T11:33:19.663Z,13.79
2023-02-08T11:36:14.667Z,14.27
2023-02-08T11:39:16.657Z,14.52
2023-02-08T11:42:07.929Z,14.62
2023-02-08T11:44:59.922Z,14.73
2023-02-08T11:47:50.534Z,14.78
2023-02-08T11:50:41.051Z,14.91
2023-02-08T11:53:36.779Z,15.07
2023-02-08T11:56:28.706Z,15.17
2023-02-08T11:59:21.563Z,15.49
2023-02-08T12:02:28.451Z,15.68
2023-02-08T12:05:19.703Z,15.51
2023-02-08T12:08:17.902Z,15.54
2023-02-08T12:11:16.112Z,15.65
2023-02-08T12:14:25.985Z,15.66
2023-02-08T12:17:29.381Z,15.88
2023-02-08T12:20:35.115Z,15.99
2023-02-08T12:23:51.092Z,15.90
2023-02-08T12:26:46.676Z,15.58
2023-02-08T12:29:47.859Z,15.16
2023-02-08T12:32:48.865Z,14.72
2023-02-08T12:36:04.223Z,14.32
2023-02-08T12:39:33.066Z,14.07
2023-02-08T12:42:34.936Z,13.81
2023-02-08T12:45:42.725Z,13.59
2023-02-08T12:48:47.664Z,13.48
2023-02-08T12:51:41.463Z,13.37
2023-02-08T12:54:35.058Z,13.22
2023-02-08T12:57:26.620Z,13.16
2023-02-08T13:00:23.073Z,13.15
2023-02-08T13:03:21.175Z,13.23
2023-02-08T13:06:19.779Z,13.27
2023-02-08T13:09:17.178Z,13.37
2023-02-08T13:12:10.049Z,13.35
2023-02-08T13:15:04.704Z,13.25
2023-02-08T13:17:56.685Z,13.30
2023-02-08T13:20:49.077Z,13.24
2023-02-08T13:23:51.687Z,13.13
2023-02-08T13:26:42.859Z,13.08
2023-02-08T13:29:36.570Z,12.97
2023-02-08T13:32:30.294Z,12.79
2023-02-08T13:35:22.168Z,12.57
2023-02-08T13:38:21.981Z,12.38
2023-02-08T13:41:17.814Z,12.26
2023-02-08T13:44:09.274Z,12.16
2023-02-08T13:47:00.306Z,12.10
2023-02-08T13:50:00.133Z,12.11
2023-02-08T13:52:52.033Z,12.04
2023-02-08T13:56:01.327Z,11.95
2023-02-08T13:59:02.550Z,11.91
2023-02-08T14:02:06.100Z,11.92
2023-02-08T14:05:00.385Z,11.93
2023-02-08T14:07:58.546Z,11.91
2023-02-08T14:11:13.272Z,11.85
2023-02-08T14:14:05.971Z,11.72
2023-02-08T14:17:09.974Z,11.59
2023-02-08T14:20:01.884Z,11.46
2023-02-08T14:22:55.864Z,11.32
2023-02-08T14:25:48.261Z,11.22
2023-02-08T14:28:41.105Z,11.14
2023-02-08T14:31:53.230Z,11.10
2023-02-08T14:34:47.715Z,11.07
2023-02-08T14:37:38.622Z,11.03
2023-02-08T14:40:48.777Z,10.96
2023-02-08T14:43:43.133Z,10.86
2023-02-08T14:46:54.986Z,10.73
2023-02-08T14:49:47.001Z,10.62
2023-02-08T14:52:40.661Z,10.51
2023-02-08T14:55:33.427Z,10.38
2023-02-08T14:58:36.384Z,10.29
2023-02-08T15:01:35.058Z,10.21
2023-02-08T15:04:27.633Z,10.13
2023-02-08T15:07:33.460Z,10.05
2023-02-08T15:10:25.141Z,9.97
2023-02-08T15:13:30.910Z,9.90
2023-02-08T15:16:35.057Z,9.85
2023-02-08T15:19:29.293Z,9.81
2023-02-08T15:22:21.321Z,9.78
2023-02-08T15:25:22.815Z,9.75
2023-02-08T15:28:20.601Z,9.72
2023-02-08T15:31:15.826Z,9.69
2023-02-08T15:34:17.990Z,9.65
2023-02-08T15:37:31.946Z,9.60
2023-02-08T15:40:36.061Z,9.57
2023-02-08T15:43:35.132Z,9.53
2023-02-08T15:46:30.065Z,9.48
2023-02-08T15:49:24.157Z,9.42
2023-02-08T15:52:17.201Z,9.37
2023-02-08T15:55:28.504Z,9.31
2023-02-08T15:58:28.871Z,9.27
2023-02-08T16:01:20.741Z,9.21
2023-02-08T16:04:22.800Z,9.16
2023-02-08T16:07:27.187Z,9.09
2023-02-08T16:10:41.537Z,9.02
2023-02-08T16:13:47.775Z,8.97
2023-02-08T16:16:49.051Z,8.93
2023-02-08T16:19:53.253Z,8.88
2023-02-08T16:23:05.509Z,8.81
2023-02-08T16:25:56.610Z,8.74
2023-02-08T16:29:08.532Z,8.67
2023-02-08T16:32:13.492Z,8.60
2023-02-08T16:35:26.214Z,8.54
2023-02-08T16:38:22.695Z,8.48
2023-02-08T16:41:43.244Z,8.44
2023-02-08T16:44:58.090Z,8.39
2023-02-08T16:47:50.356Z,8.35
2023-02-08T16:51:01.217Z,8.31
2023-02-08T16:53:52.244Z,8.27
2023-02-08T16:56:53.854Z,8.23
2023-02-08T17:00:05.700Z,8.18
2023-02-08T17:03:09.475Z,8.13
2023-02-08T17:06:03.210Z,8.11
2023-02-08T17:09:09.421Z,8.07
2023-02-08T17:12:21.817Z,8.04
2023-02-08T17:15:24.128Z,8.00
2023-02-08T17:18:28.264Z,7.96
2023-02-08T17:21:39.494Z,7.93
2023-02-08T17:24:50.253Z,7.90
2023-02-08T17:28:02.931Z,7.87
2023-02-08T17:31:14.719Z,7.86
2023-02-08T17:34:25.634Z,7.84
2023-02-08T17:37:31.923Z,7.81
2023-02-08T17:40:27.172Z,7.79
2023-02-08T17:43:30.756Z,7.77
2023-02-08T17:46:41.195Z,7.75
2023-02-08T17:49:51.298Z,7.71
2023-02-08T17:52:53.205Z,7.67
2023-02-08T17:55:54.917Z,7.64
2023-02-08T17:58:51.324Z,7.64
2023-02-08T18:02:01.802Z,7.63
2023-02-08T18:04:55.875Z,7.63
2023-02-08T18:08:07.055Z,7.63
2023-02-08T18:11:20.229Z,7.64
2023-02-08T18:14:30.985Z,7.64
2023-02-08T18:17:42.937Z,7.65
2023-02-08T18:20:47.268Z,7.67
2023-02-08T18:23:58.217Z,7.70
2023-02-08T18:27:09.036Z,7.72
2023-02-08T18:30:20.546Z,7.73
2023-02-08T18:33:30.989Z,7.74
2023-02-08T18:36:41.821Z,7.74
2023-02-08T18:39:51.593Z,7.73
2023-02-08T18:42:56.398Z,7.72
2023-02-08T18:46:10.115Z,7.71
2023-02-08T18:49:16.062Z,7.74
2023-02-08T18:52:26.833Z,7.76
2023-02-08T18:55:38.159Z,7.79
2023-02-08T18:58:36.663Z,7.81
2023-02-08T19:01:37.319Z,7.83
2023-02-08T19:04:28.053Z,7.84
2023-02-08T19:07:39.529Z,7.86
2023-02-08T19:10:44.395Z,7.88
2023-02-08T19:13:57.263Z,7.93
2023-02-08T19:16:52.785Z,7.95
2023-02-08T19:20:03.521Z,7.97
2023-02-08T19:23:14.246Z,8.00
2023-02-08T19:26:24.701Z,8.03
2023-02-08T19:29:26.032Z,8.07
2023-02-08T19:32:16.702Z,8.12
2023-02-08T19:35:27.571Z,8.17
2023-02-08T19:38:20.641Z,8.22
2023-02-08T19:41:23.007Z,8.27
2023-02-08T19:44:34.606Z,8.30
2023-02-08T19:47:49.891Z,8.32
2023-02-08T19:51:00.315Z,8.34
2023-02-08T19:53:50.965Z,8.36
2023-02-08T19:57:01.700Z,8.37
2023-02-08T20:00:11.238Z,8.36
2023-02-08T20:03:28.616Z,8.35
2023-02-08T20:06:40.067Z,8.33
2023-02-08T20:09:30.885Z,8.33
2023-02-08T20:12:35.375Z,8.33
2023-02-08T20:15:26.057Z,8.31
2023-02-08T20:18:22.152Z,8.28
2023-02-08T20:21:39.710Z,8.24
2023-02-08T20:24:33.579Z,8.19
2023-02-08T20:27:37.020Z,8.17
2023-02-08T20:30:48.279Z,8.16
2023-02-08T20:34:00.306Z,8.16
2023-02-08T20:37:11.897Z,8.16
2023-02-08T20:40:05.520Z,8.17
2023-02-08T20:43:16.811Z,8.19
2023-02-08T20:46:23.321Z,8.14
2023-02-08T20:49:22.182Z,8.02
2023-02-08T20:52:22.060Z,7.87
2023-02-08T20:55:32.824Z,7.73
2023-02-08T20:58:23.547Z,7.61
2023-02-08T21:01:28.450Z,7.50
2023-02-08T21:04:39.211Z,7.40
2023-02-08T21:07:40.621Z,7.28
2023-02-08T21:10:46.286Z,7.20
2023-02-08T21:13:39.844Z,7.13
2023-02-08T21:16:52.253Z,7.07
2023-02-08T21:19:49.070Z,7.02
2023-02-08T21:22:39.776Z,6.98
2023-02-08T21:25:45.869Z,6.94
2023-02-08T21:28:39.282Z,6.92
2023-02-08T21:31:53.777Z,6.89
2023-02-08T21:34:44.278Z,6.86
2023-02-08T21:37:54.992Z,6.82
2023-02-08T21:40:54.860Z,6.77
2023-02-08T21:44:08.426Z,6.73
2023-02-08T21:47:10.479Z,6.70
2023-02-08T21:50:30.164Z,6.70
2023-02-08T21:54:06.731Z,6.71
2023-02-08T21:57:19.229Z,6.72
2023-02-08T22:00:21.803Z,6.73
2023-02-08T22:03:34.479Z,6.74
2023-02-08T22:06:42.931Z,6.76
2023-02-08T22:09:47.072Z,6.77
2023-02-08T22:12:58.407Z,6.79
2023-02-08T22:15:49.355Z,6.80
2023-02-08T22:18:48.847Z,6.78
2023-02-08T22:21:49.928Z,6.74
2023-02-08T22:24:43.346Z,6.71
2023-02-08T22:27:54.160Z,6.67
2023-02-08T22:31:05.452Z,6.62
2023-02-08T22:34:16.221Z,6.57
2023-02-08T22:37:17.573Z,6.54
2023-02-08T22:40:28.369Z,6.50
2023-02-08T22:43:39.099Z,6.49
2023-02-08T22:46:50.203Z,6.50
2023-02-08T22:49:59.888Z,6.52
2023-02-08T22:53:10.918Z,6.54
2023-02-08T22:56:05.266Z,6.55
2023-02-08T22:59:16.386Z,6.55
2023-02-08T23:02:27.636Z,6.51
2023-02-08T23:05:21.596Z,6.48
2023-02-08T23:08:32.464Z,6.47
2023-02-08T23:11:26.114Z,6.44
2023-02-08T23:14:37.007Z,6.41
2023-02-08T23:17:48.106Z,6.37
2023-02-08T23:20:44.873Z,6.34
2023-02-08T23:23:55.897Z,6.33
2023-02-08T23:26:57.298Z,6.32
2023-02-08T23:30:09.729Z,6.32
2023-02-08T23:33:20.744Z,6.33
2023-02-08T23:36:31.610Z,6.33
2023-02-08T23:39:42.463Z,6.33
2023-02-08T23:42:44.134Z,6.33
2023-02-08T23:45:53.243Z,6.31
2023-02-08T23:49:04.119Z,6.25
2023-02-08T23:52:15.275Z,6.15
2023-02-08T23:55:26.376Z,6.05
2023-02-08T23:58:30.840Z,5.94
